sensor_id;sensor_type;location;lat;lon;timestamp;P1;durP1;ratioP1;P2;durP2;ratioP2
38609;SDS011;24367;51.640;9.566;2023-09-30T00:00:43;13.23;;;11.82;;
38609;SDS011;24367;51.640;9.566;2023-09-30T00:03:09;13.27;;;11.77;;
38609;SDS011;24367;51.640;9.566;2023-09-30T00:05:36;12.98;;;11.57;;
38609;SDS011;24367;51.640;9.566;2023-09-30T00:08:03;13.82;;;11.88;;
38609;SDS011;24367;51.640;9.566;2023-09-30T00:10:31;13.93;;;11.60;;
38609;SDS011;24367;51.640;9.566;2023-09-30T00:12:57;12.82;;;11.50;;
38609;SDS011;24367;51.640;9.566;2023-09-30T00:15:24;12.07;;;10.82;;
38609;SDS011;24367;51.640;9.566;2023-09-30T00:17:50;12.93;;;11.50;;
38609;SDS011;24367;51.640;9.566;2023-09-30T00:20:17;13.55;;;11.20;;
38609;SDS011;24367;51.640;9.566;2023-09-30T00:22:43;14.45;;;11.80;;
38609;SDS011;24367;51.640;9.566;2023-09-30T00:25:10;12.85;;;11.40;;
38609;SDS011;24367;51.640;9.566;2023-09-30T00:27:38;13.65;;;12.18;;
38609;SDS011;24367;51.640;9.566;2023-09-30T00:30:05;13.07;;;11.30;;
38609;SDS011;24367;51.640;9.566;2023-09-30T00:32:33;13.85;;;12.13;;
38609;SDS011;24367;51.640;9.566;2023-09-30T00:35:00;13.50;;;11.65;;
38609;SDS011;24367;51.640;9.566;2023-09-30T00:37:27;13.23;;;11.60;;
38609;SDS011;24367;51.640;9.566;2023-09-30T00:39:53;12.13;;;10.85;;
38609;SDS011;24367;51.640;9.566;2023-09-30T00:42:20;11.65;;;10.18;;
38609;SDS011;24367;51.640;9.566;2023-09-30T00:44:48;11.77;;;10.57;;
38609;SDS011;24367;51.640;9.566;2023-09-30T00:47:15;12.27;;;10.88;;
38609;SDS011;24367;51.640;9.566;2023-09-30T00:49:41;13.30;;;10.93;;
38609;SDS011;24367;51.640;9.566;2023-09-30T00:52:08;12.43;;;11.13;;
38609;SDS011;24367;51.640;9.566;2023-09-30T00:54:35;11.80;;;10.27;;
38609;SDS011;24367;51.640;9.566;2023-09-30T00:57:03;11.88;;;10.63;;
38609;SDS011;24367;51.640;9.566;2023-09-30T00:59:30;12.38;;;10.85;;
38609;SDS011;24367;51.640;9.566;2023-09-30T01:01:59;11.80;;;10.40;;
38609;SDS011;24367;51.640;9.566;2023-09-30T01:04:26;12.38;;;10.88;;
38609;SDS011;24367;51.640;9.566;2023-09-30T01:06:53;11.10;;;9.88;;
38609;SDS011;24367;51.640;9.566;2023-09-30T01:09:22;13.10;;;11.20;;
38609;SDS011;24367;51.640;9.566;2023-09-30T01:11:49;12.25;;;10.68;;
38609;SDS011;24367;51.640;9.566;2023-09-30T01:14:25;11.65;;;10.00;;
38609;SDS011;24367;51.640;9.566;2023-09-30T01:16:54;11.80;;;10.20;;
38609;SDS011;24367;51.640;9.566;2023-09-30T01:19:22;11.05;;;9.85;;
38609;SDS011;24367;51.640;9.566;2023-09-30T01:21:52;11.52;;;10.02;;
38609;SDS011;24367;51.640;9.566;2023-09-30T01:24:20;11.40;;;10.20;;
38609;SDS011;24367;51.640;9.566;2023-09-30T01:26:46;11.05;;;9.65;;
38609;SDS011;24367;51.640;9.566;2023-09-30T01:29:13;11.27;;;9.40;;
38609;SDS011;24367;51.640;9.566;2023-09-30T01:31:40;11.70;;;10.40;;
38609;SDS011;24367;51.640;9.566;2023-09-30T01:34:06;11.27;;;10.05;;
38609;SDS011;24367;51.640;9.566;2023-09-30T01:36:33;11.88;;;9.88;;
38609;SDS011;24367;51.640;9.566;2023-09-30T01:39:00;11.70;;;10.50;;
38609;SDS011;24367;51.640;9.566;2023-09-30T01:41:28;12.00;;;10.18;;
38609;SDS011;24367;51.640;9.566;2023-09-30T01:43:55;11.88;;;10.02;;
38609;SDS011;24367;51.640;9.566;2023-09-30T01:46:22;11.07;;;9.75;;
38609;SDS011;24367;51.640;9.566;2023-09-30T01:48:48;10.45;;;9.38;;
38609;SDS011;24367;51.640;9.566;2023-09-30T01:51:15;11.02;;;9.45;;
38609;SDS011;24367;51.640;9.566;2023-09-30T01:53:41;10.55;;;9.23;;
38609;SDS011;24367;51.640;9.566;2023-09-30T01:56:09;10.55;;;9.45;;
38609;SDS011;24367;51.640;9.566;2023-09-30T01:58:37;11.20;;;9.32;;
38609;SDS011;24367;51.640;9.566;2023-09-30T02:01:03;9.90;;;8.90;;
38609;SDS011;24367;51.640;9.566;2023-09-30T02:03:30;10.50;;;9.40;;
38609;SDS011;24367;51.640;9.566;2023-09-30T02:05:56;9.82;;;8.82;;
38609;SDS011;24367;51.640;9.566;2023-09-30T02:08:23;11.02;;;9.20;;
38609;SDS011;24367;51.640;9.566;2023-09-30T02:10:50;11.07;;;9.68;;
38609;SDS011;24367;51.640;9.566;2023-09-30T02:13:19;10.60;;;8.77;;
38609;SDS011;24367;51.640;9.566;2023-09-30T02:15:46;10.50;;;9.38;;
38609;SDS011;24367;51.640;9.566;2023-09-30T02:18:12;10.25;;;8.80;;
38609;SDS011;24367;51.640;9.566;2023-09-30T02:20:39;10.85;;;9.55;;
38609;SDS011;24367;51.640;9.566;2023-09-30T02:23:06;9.75;;;8.75;;
38609;SDS011;24367;51.640;9.566;2023-09-30T02:25:33;10.65;;;9.63;;
38609;SDS011;24367;51.640;9.566;2023-09-30T02:28:00;9.88;;;8.70;;
38609;SDS011;24367;51.640;9.566;2023-09-30T02:30:28;9.95;;;8.95;;
38609;SDS011;24367;51.640;9.566;2023-09-30T02:32:56;10.10;;;8.73;;
38609;SDS011;24367;51.640;9.566;2023-09-30T02:35:22;10.40;;;9.30;;
38609;SDS011;24367;51.640;9.566;2023-09-30T02:37:48;10.15;;;8.40;;
38609;SDS011;24367;51.640;9.566;2023-09-30T02:40:16;10.55;;;8.82;;
38609;SDS011;24367;51.640;9.566;2023-09-30T02:42:43;9.93;;;8.52;;
38609;SDS011;24367;51.640;9.566;2023-09-30T02:45:10;9.90;;;8.63;;
38609;SDS011;24367;51.640;9.566;2023-09-30T02:47:39;10.38;;;9.35;;
38609;SDS011;24367;51.640;9.566;2023-09-30T02:50:06;9.40;;;8.40;;
38609;SDS011;24367;51.640;9.566;2023-09-30T02:52:33;10.30;;;9.20;;
38609;SDS011;24367;51.640;9.566;2023-09-30T02:55:02;11.57;;;9.63;;
38609;SDS011;24367;51.640;9.566;2023-09-30T02:57:29;10.00;;;8.90;;
38609;SDS011;24367;51.640;9.566;2023-09-30T02:59:56;11.30;;;9.45;;
38609;SDS011;24367;51.640;9.566;2023-09-30T03:02:25;9.57;;;8.57;;
38609;SDS011;24367;51.640;9.566;2023-09-30T03:04:52;9.85;;;8.60;;
38609;SDS011;24367;51.640;9.566;2023-09-30T03:07:19;9.32;;;8.25;;
38609;SDS011;24367;51.640;9.566;2023-09-30T03:09:46;10.07;;;8.40;;
38609;SDS011;24367;51.640;9.566;2023-09-30T03:12:12;8.95;;;8.02;;
38609;SDS011;24367;51.640;9.566;2023-09-30T03:14:40;8.50;;;7.53;;
38609;SDS011;24367;51.640;9.566;2023-09-30T03:17:07;9.43;;;8.43;;
38609;SDS011;24367;51.640;9.566;2023-09-30T03:19:36;9.20;;;8.30;;
38609;SDS011;24367;51.640;9.566;2023-09-30T03:22:05;8.70;;;7.63;;
38609;SDS011;24367;51.640;9.566;2023-09-30T03:24:36;9.48;;;8.27;;
38609;SDS011;24367;51.640;9.566;2023-09-30T03:27:03;8.70;;;7.80;;
38609;SDS011;24367;51.640;9.566;2023-09-30T03:29:30;9.50;;;8.23;;
38609;SDS011;24367;51.640;9.566;2023-09-30T03:31:56;10.68;;;8.88;;
38609;SDS011;24367;51.640;9.566;2023-09-30T03:34:22;9.25;;;8.20;;
38609;SDS011;24367;51.640;9.566;2023-09-30T03:36:49;9.23;;;8.18;;
38609;SDS011;24367;51.640;9.566;2023-09-30T03:39:17;8.80;;;7.90;;
38609;SDS011;24367;51.640;9.566;2023-09-30T03:41:51;8.73;;;7.80;;
38609;SDS011;24367;51.640;9.566;2023-09-30T03:44:19;8.82;;;7.93;;
38609;SDS011;24367;51.640;9.566;2023-09-30T03:46:46;9.02;;;7.90;;
38609;SDS011;24367;51.640;9.566;2023-09-30T03:49:12;11.02;;;8.60;;
38609;SDS011;24367;51.640;9.566;2023-09-30T03:51:38;8.65;;;7.72;;
38609;SDS011;24367;51.640;9.566;2023-09-30T03:54:06;9.77;;;8.02;;
38609;SDS011;24367;51.640;9.566;2023-09-30T03:56:35;8.30;;;7.20;;
38609;SDS011;24367;51.640;9.566;2023-09-30T03:59:03;9.23;;;7.97;;
38609;SDS011;24367;51.640;9.566;2023-09-30T04:01:30;9.52;;;7.85;;
38609;SDS011;24367;51.640;9.566;2023-09-30T04:03:56;8.20;;;7.32;;
38609;SDS011;24367;51.640;9.566;2023-09-30T04:06:23;7.88;;;7.07;;
38609;SDS011;24367;51.640;9.566;2023-09-30T04:08:49;7.90;;;7.10;;
38609;SDS011;24367;51.640;9.566;2023-09-30T04:11:16;9.52;;;8.35;;
38609;SDS011;24367;51.640;9.566;2023-09-30T04:13:45;8.98;;;7.82;;
38609;SDS011;24367;51.640;9.566;2023-09-30T04:16:11;8.27;;;6.90;;
38609;SDS011;24367;51.640;9.566;2023-09-30T04:18:38;8.52;;;7.63;;
38609;SDS011;24367;51.640;9.566;2023-09-30T04:21:05;8.68;;;7.60;;
38609;SDS011;24367;51.640;9.566;2023-09-30T04:23:32;8.98;;;7.78;;
38609;SDS011;24367;51.640;9.566;2023-09-30T04:26:01;8.45;;;7.55;;
38609;SDS011;24367;51.640;9.566;2023-09-30T04:28:28;8.20;;;7.38;;
38609;SDS011;24367;51.640;9.566;2023-09-30T04:30:57;7.45;;;6.60;;
38609;SDS011;24367;51.640;9.566;2023-09-30T04:33:23;8.15;;;7.10;;
38609;SDS011;24367;51.640;9.566;2023-09-30T04:35:50;7.95;;;7.15;;
38609;SDS011;24367;51.640;9.566;2023-09-30T04:38:16;7.88;;;7.07;;
38609;SDS011;24367;51.640;9.566;2023-09-30T04:40:43;8.00;;;6.57;;
38609;SDS011;24367;51.640;9.566;2023-09-30T04:43:09;9.30;;;8.30;;
38609;SDS011;24367;51.640;9.566;2023-09-30T04:45:36;8.18;;;7.07;;
38609;SDS011;24367;51.640;9.566;2023-09-30T04:48:04;8.43;;;7.60;;
38609;SDS011;24367;51.640;9.566;2023-09-30T04:50:31;7.15;;;6.10;;
38609;SDS011;24367;51.640;9.566;2023-09-30T04:52:57;7.82;;;7.03;;
38609;SDS011;24367;51.640;9.566;2023-09-30T04:55:23;8.38;;;7.22;;
38609;SDS011;24367;51.640;9.566;2023-09-30T04:57:51;7.85;;;6.80;;
38609;SDS011;24367;51.640;9.566;2023-09-30T05:00:19;7.63;;;6.55;;
38609;SDS011;24367;51.640;9.566;2023-09-30T05:02:50;8.18;;;7.15;;
38609;SDS011;24367;51.640;9.566;2023-09-30T05:05:18;8.45;;;6.55;;
38609;SDS011;24367;51.640;9.566;2023-09-30T05:07:45;8.50;;;7.05;;
38609;SDS011;24367;51.640;9.566;2023-09-30T05:10:12;7.25;;;6.55;;
38609;SDS011;24367;51.640;9.566;2023-09-30T05:12:41;7.97;;;7.20;;
38609;SDS011;24367;51.640;9.566;2023-09-30T05:15:10;7.22;;;6.53;;
38609;SDS011;24367;51.640;9.566;2023-09-30T05:17:37;7.95;;;7.15;;
38609;SDS011;24367;51.640;9.566;2023-09-30T05:20:04;7.75;;;6.60;;
38609;SDS011;24367;51.640;9.566;2023-09-30T05:22:33;8.00;;;6.97;;
38609;SDS011;24367;51.640;9.566;2023-09-30T05:25:00;7.85;;;7.05;;
38609;SDS011;24367;51.640;9.566;2023-09-30T05:27:26;7.35;;;6.45;;
38609;SDS011;24367;51.640;9.566;2023-09-30T05:29:53;8.80;;;6.30;;
38609;SDS011;24367;51.640;9.566;2023-09-30T05:32:20;7.45;;;6.38;;
38609;SDS011;24367;51.640;9.566;2023-09-30T05:34:47;8.38;;;6.40;;
38609;SDS011;24367;51.640;9.566;2023-09-30T05:37:14;7.75;;;6.93;;
38609;SDS011;24367;51.640;9.566;2023-09-30T05:39:41;8.98;;;7.20;;
38609;SDS011;24367;51.640;9.566;2023-09-30T05:42:09;7.70;;;6.53;;
38609;SDS011;24367;51.640;9.566;2023-09-30T05:44:36;8.00;;;7.20;;
38609;SDS011;24367;51.640;9.566;2023-09-30T05:47:03;7.55;;;6.75;;
38609;SDS011;24367;51.640;9.566;2023-09-30T05:49:30;8.45;;;6.85;;
38609;SDS011;24367;51.640;9.566;2023-09-30T05:51:56;7.50;;;6.60;;
38609;SDS011;24367;51.640;9.566;2023-09-30T05:54:23;7.40;;;6.55;;
38609;SDS011;24367;51.640;9.566;2023-09-30T05:56:51;7.15;;;6.38;;
38609;SDS011;24367;51.640;9.566;2023-09-30T05:59:17;7.40;;;6.05;;
38609;SDS011;24367;51.640;9.566;2023-09-30T06:01:44;6.90;;;5.75;;
38609;SDS011;24367;51.640;9.566;2023-09-30T06:04:11;6.60;;;5.68;;
38609;SDS011;24367;51.640;9.566;2023-09-30T06:06:38;6.80;;;6.05;;
38609;SDS011;24367;51.640;9.566;2023-09-30T06:09:04;6.97;;;5.95;;
38609;SDS011;24367;51.640;9.566;2023-09-30T06:11:33;7.00;;;6.30;;
38609;SDS011;24367;51.640;9.566;2023-09-30T06:14:02;6.88;;;6.03;;
38609;SDS011;24367;51.640;9.566;2023-09-30T06:16:31;6.85;;;6.10;;
38609;SDS011;24367;51.640;9.566;2023-09-30T06:18:58;6.95;;;6.25;;
38609;SDS011;24367;51.640;9.566;2023-09-30T06:21:24;6.43;;;5.65;;
38609;SDS011;24367;51.640;9.566;2023-09-30T06:23:54;6.63;;;5.93;;
38609;SDS011;24367;51.640;9.566;2023-09-30T06:26:20;6.70;;;5.97;;
38609;SDS011;24367;51.640;9.566;2023-09-30T06:28:50;7.30;;;6.28;;
38609;SDS011;24367;51.640;9.566;2023-09-30T06:31:20;6.78;;;6.00;;
38609;SDS011;24367;51.640;9.566;2023-09-30T06:33:48;7.05;;;6.35;;
38609;SDS011;24367;51.640;9.566;2023-09-30T06:36:14;7.05;;;5.78;;
38609;SDS011;24367;51.640;9.566;2023-09-30T06:38:41;6.13;;;5.53;;
38609;SDS011;24367;51.640;9.566;2023-09-30T06:41:08;6.07;;;5.40;;
38609;SDS011;24367;51.640;9.566;2023-09-30T06:43:35;6.93;;;6.22;;
38609;SDS011;24367;51.640;9.566;2023-09-30T06:46:05;6.57;;;5.57;;
38609;SDS011;24367;51.640;9.566;2023-09-30T06:48:33;6.63;;;5.60;;
38609;SDS011;24367;51.640;9.566;2023-09-30T06:51:00;6.60;;;5.90;;
38609;SDS011;24367;51.640;9.566;2023-09-30T06:53:27;6.47;;;5.60;;
38609;SDS011;24367;51.640;9.566;2023-09-30T06:55:53;6.80;;;5.75;;
38609;SDS011;24367;51.640;9.566;2023-09-30T06:58:20;7.07;;;5.55;;
38609;SDS011;24367;51.640;9.566;2023-09-30T07:00:46;7.13;;;6.43;;
38609;SDS011;24367;51.640;9.566;2023-09-30T07:03:14;7.13;;;6.20;;
38609;SDS011;24367;51.640;9.566;2023-09-30T07:05:42;7.97;;;5.55;;
38609;SDS011;24367;51.640;9.566;2023-09-30T07:08:08;6.10;;;5.32;;
38609;SDS011;24367;51.640;9.566;2023-09-30T07:10:35;7.38;;;5.70;;
38609;SDS011;24367;51.640;9.566;2023-09-30T07:13:02;6.55;;;4.47;;
38609;SDS011;24367;51.640;9.566;2023-09-30T07:15:28;6.40;;;4.50;;
38609;SDS011;24367;51.640;9.566;2023-09-30T07:17:55;5.60;;;4.05;;
38609;SDS011;24367;51.640;9.566;2023-09-30T07:20:21;7.88;;;4.18;;
38609;SDS011;24367;51.640;9.566;2023-09-30T07:22:50;9.23;;;4.25;;
38609;SDS011;24367;51.640;9.566;2023-09-30T07:25:17;8.18;;;4.43;;
38609;SDS011;24367;51.640;9.566;2023-09-30T07:27:44;5.85;;;4.35;;
38609;SDS011;24367;51.640;9.566;2023-09-30T07:30:11;7.22;;;4.60;;
38609;SDS011;24367;51.640;9.566;2023-09-30T07:32:40;6.22;;;4.25;;
38609;SDS011;24367;51.640;9.566;2023-09-30T07:35:07;5.15;;;3.78;;
38609;SDS011;24367;51.640;9.566;2023-09-30T07:37:34;7.20;;;4.50;;
38609;SDS011;24367;51.640;9.566;2023-09-30T07:40:02;8.32;;;3.95;;
38609;SDS011;24367;51.640;9.566;2023-09-30T07:42:30;5.88;;;3.30;;
38609;SDS011;24367;51.640;9.566;2023-09-30T07:44:58;6.95;;;3.10;;
38609;SDS011;24367;51.640;9.566;2023-09-30T07:47:24;9.40;;;3.85;;
38609;SDS011;24367;51.640;9.566;2023-09-30T07:49:51;10.70;;;3.80;;
38609;SDS011;24367;51.640;9.566;2023-09-30T07:52:17;10.45;;;3.58;;
38609;SDS011;24367;51.640;9.566;2023-09-30T07:54:44;6.30;;;3.53;;
38609;SDS011;24367;51.640;9.566;2023-09-30T07:57:12;7.00;;;3.60;;
38609;SDS011;24367;51.640;9.566;2023-09-30T07:59:38;5.78;;;3.20;;
38609;SDS011;24367;51.640;9.566;2023-09-30T08:02:05;7.20;;;3.83;;
38609;SDS011;24367;51.640;9.566;2023-09-30T08:04:32;6.75;;;3.83;;
38609;SDS011;24367;51.640;9.566;2023-09-30T08:06:58;8.13;;;3.50;;
38609;SDS011;24367;51.640;9.566;2023-09-30T08:09:24;7.55;;;3.70;;
38609;SDS011;24367;51.640;9.566;2023-09-30T08:11:52;7.78;;;3.65;;
38609;SDS011;24367;51.640;9.566;2023-09-30T08:14:20;6.22;;;3.38;;
38609;SDS011;24367;51.640;9.566;2023-09-30T08:16:47;6.85;;;3.83;;
38609;SDS011;24367;51.640;9.566;2023-09-30T08:19:14;7.90;;;3.58;;
38609;SDS011;24367;51.640;9.566;2023-09-30T08:21:41;8.23;;;3.38;;
38609;SDS011;24367;51.640;9.566;2023-09-30T08:24:07;11.48;;;3.33;;
38609;SDS011;24367;51.640;9.566;2023-09-30T08:26:34;10.05;;;3.13;;
38609;SDS011;24367;51.640;9.566;2023-09-30T08:29:01;6.82;;;3.63;;
38609;SDS011;24367;51.640;9.566;2023-09-30T08:31:29;9.55;;;3.58;;
38609;SDS011;24367;51.640;9.566;2023-09-30T08:33:56;8.30;;;3.45;;
38609;SDS011;24367;51.640;9.566;2023-09-30T08:36:22;9.55;;;3.53;;
38609;SDS011;24367;51.640;9.566;2023-09-30T08:38:50;11.05;;;3.67;;
38609;SDS011;24367;51.640;9.566;2023-09-30T08:41:17;7.45;;;3.20;;
38609;SDS011;24367;51.640;9.566;2023-09-30T08:43:53;8.00;;;4.10;;
38609;SDS011;24367;51.640;9.566;2023-09-30T08:46:22;9.30;;;3.33;;
38609;SDS011;24367;51.640;9.566;2023-09-30T08:48:51;11.13;;;3.00;;
38609;SDS011;24367;51.640;9.566;2023-09-30T08:51:19;16.10;;;3.38;;
38609;SDS011;24367;51.640;9.566;2023-09-30T08:53:46;8.00;;;3.83;;
38609;SDS011;24367;51.640;9.566;2023-09-30T08:56:14;7.35;;;3.42;;
38609;SDS011;24367;51.640;9.566;2023-09-30T08:58:42;13.75;;;3.92;;
38609;SDS011;24367;51.640;9.566;2023-09-30T09:01:09;10.00;;;3.78;;
38609;SDS011;24367;51.640;9.566;2023-09-30T09:03:36;11.63;;;3.88;;
38609;SDS011;24367;51.640;9.566;2023-09-30T09:06:05;8.95;;;3.72;;
38609;SDS011;24367;51.640;9.566;2023-09-30T09:08:32;11.00;;;3.60;;
38609;SDS011;24367;51.640;9.566;2023-09-30T09:10:58;12.18;;;4.05;;
38609;SDS011;24367;51.640;9.566;2023-09-30T09:13:28;14.20;;;3.80;;
38609;SDS011;24367;51.640;9.566;2023-09-30T09:16:11;12.38;;;4.25;;
38609;SDS011;24367;51.640;9.566;2023-09-30T09:18:37;14.18;;;4.40;;
38609;SDS011;24367;51.640;9.566;2023-09-30T09:21:10;11.00;;;4.13;;
38609;SDS011;24367;51.640;9.566;2023-09-30T09:23:41;12.52;;;4.25;;
38609;SDS011;24367;51.640;9.566;2023-09-30T09:26:08;11.18;;;4.30;;
38609;SDS011;24367;51.640;9.566;2023-09-30T09:28:35;16.55;;;4.55;;
38609;SDS011;24367;51.640;9.566;2023-09-30T09:31:06;15.23;;;4.50;;
38609;SDS011;24367;51.640;9.566;2023-09-30T09:33:45;16.55;;;4.55;;
38609;SDS011;24367;51.640;9.566;2023-09-30T09:36:13;11.55;;;4.43;;
38609;SDS011;24367;51.640;9.566;2023-09-30T09:38:43;11.52;;;4.00;;
38609;SDS011;24367;51.640;9.566;2023-09-30T09:41:10;12.95;;;4.07;;
38609;SDS011;24367;51.640;9.566;2023-09-30T09:43:37;11.25;;;3.63;;
38609;SDS011;24367;51.640;9.566;2023-09-30T09:46:03;10.20;;;4.00;;
38609;SDS011;24367;51.640;9.566;2023-09-30T09:48:33;9.68;;;4.22;;
38609;SDS011;24367;51.640;9.566;2023-09-30T09:51:01;10.00;;;3.80;;
38609;SDS011;24367;51.640;9.566;2023-09-30T09:53:29;13.50;;;4.63;;
38609;SDS011;24367;51.640;9.566;2023-09-30T09:55:56;11.65;;;4.07;;
38609;SDS011;24367;51.640;9.566;2023-09-30T09:58:26;13.73;;;4.53;;
38609;SDS011;24367;51.640;9.566;2023-09-30T10:00:56;15.73;;;4.22;;
38609;SDS011;24367;51.640;9.566;2023-09-30T10:03:24;11.80;;;3.97;;
38609;SDS011;24367;51.640;9.566;2023-09-30T10:05:50;11.35;;;3.90;;
38609;SDS011;24367;51.640;9.566;2023-09-30T10:08:17;10.43;;;3.70;;
38609;SDS011;24367;51.640;9.566;2023-09-30T10:10:48;13.45;;;3.88;;
38609;SDS011;24367;51.640;9.566;2023-09-30T10:19:21;11.25;;;3.78;;
38609;SDS011;24367;51.640;9.566;2023-09-30T10:24:47;11.05;;;3.55;;
38609;SDS011;24367;51.640;9.566;2023-09-30T10:27:33;9.52;;;3.63;;
38609;SDS011;24367;51.640;9.566;2023-09-30T10:30:14;13.23;;;4.13;;
38609;SDS011;24367;51.640;9.566;2023-09-30T10:35:42;10.07;;;3.83;;
38609;SDS011;24367;51.640;9.566;2023-09-30T10:41:08;10.27;;;3.55;;
38609;SDS011;24367;51.640;9.566;2023-09-30T10:43:37;8.82;;;3.40;;
38609;SDS011;24367;51.640;9.566;2023-09-30T10:48:56;7.43;;;3.15;;
38609;SDS011;24367;51.640;9.566;2023-09-30T10:51:22;9.25;;;3.60;;
38609;SDS011;24367;51.640;9.566;2023-09-30T10:53:49;8.60;;;2.80;;
38609;SDS011;24367;51.640;9.566;2023-09-30T10:56:17;10.38;;;3.20;;
38609;SDS011;24367;51.640;9.566;2023-09-30T10:58:46;6.78;;;2.47;;
38609;SDS011;24367;51.640;9.566;2023-09-30T11:01:14;10.55;;;3.72;;
38609;SDS011;24367;51.640;9.566;2023-09-30T11:03:41;7.07;;;2.50;;
38609;SDS011;24367;51.640;9.566;2023-09-30T11:06:10;10.75;;;3.47;;
38609;SDS011;24367;51.640;9.566;2023-09-30T11:08:40;9.90;;;2.70;;
38609;SDS011;24367;51.640;9.566;2023-09-30T11:11:11;10.20;;;3.20;;
38609;SDS011;24367;51.640;9.566;2023-09-30T11:13:39;11.77;;;3.78;;
38609;SDS011;24367;51.640;9.566;2023-09-30T11:16:07;10.13;;;3.35;;
38609;SDS011;24367;51.640;9.566;2023-09-30T11:18:33;9.18;;;3.13;;
38609;SDS011;24367;51.640;9.566;2023-09-30T11:21:03;8.57;;;3.20;;
38609;SDS011;24367;51.640;9.566;2023-09-30T11:23:30;7.10;;;3.38;;
38609;SDS011;24367;51.640;9.566;2023-09-30T11:25:57;9.57;;;3.25;;
38609;SDS011;24367;51.640;9.566;2023-09-30T11:28:23;10.35;;;3.80;;
38609;SDS011;24367;51.640;9.566;2023-09-30T11:30:54;8.35;;;3.47;;
38609;SDS011;24367;51.640;9.566;2023-09-30T11:33:23;10.23;;;3.53;;
38609;SDS011;24367;51.640;9.566;2023-09-30T11:35:56;7.82;;;3.05;;
38609;SDS011;24367;51.640;9.566;2023-09-30T11:38:24;9.15;;;3.25;;
38609;SDS011;24367;51.640;9.566;2023-09-30T11:41:00;7.85;;;3.05;;
38609;SDS011;24367;51.640;9.566;2023-09-30T11:43:29;7.72;;;2.90;;
38609;SDS011;24367;51.640;9.566;2023-09-30T11:46:05;8.60;;;3.83;;
38609;SDS011;24367;51.640;9.566;2023-09-30T11:48:35;8.13;;;3.30;;
38609;SDS011;24367;51.640;9.566;2023-09-30T11:51:02;7.35;;;3.38;;
38609;SDS011;24367;51.640;9.566;2023-09-30T11:53:28;7.78;;;3.13;;
38609;SDS011;24367;51.640;9.566;2023-09-30T11:55:56;8.60;;;2.97;;
38609;SDS011;24367;51.640;9.566;2023-09-30T11:58:25;7.45;;;3.05;;
38609;SDS011;24367;51.640;9.566;2023-09-30T12:00:53;8.32;;;3.00;;
38609;SDS011;24367;51.640;9.566;2023-09-30T12:03:20;8.18;;;3.13;;
38609;SDS011;24367;51.640;9.566;2023-09-30T12:05:48;6.20;;;2.60;;
38609;SDS011;24367;51.640;9.566;2023-09-30T12:08:14;10.75;;;3.50;;
38609;SDS011;24367;51.640;9.566;2023-09-30T12:10:41;8.38;;;3.20;;
38609;SDS011;24367;51.640;9.566;2023-09-30T12:13:08;6.53;;;2.90;;
38609;SDS011;24367;51.640;9.566;2023-09-30T12:15:37;9.18;;;3.13;;
38609;SDS011;24367;51.640;9.566;2023-09-30T12:18:03;7.78;;;3.15;;
38609;SDS011;24367;51.640;9.566;2023-09-30T12:20:30;6.43;;;2.47;;
38609;SDS011;24367;51.640;9.566;2023-09-30T12:22:58;6.97;;;2.95;;
38609;SDS011;24367;51.640;9.566;2023-09-30T12:25:24;7.47;;;2.97;;
38609;SDS011;24367;51.640;9.566;2023-09-30T12:27:51;10.95;;;3.45;;
38609;SDS011;24367;51.640;9.566;2023-09-30T12:30:20;8.07;;;3.17;;
38609;SDS011;24367;51.640;9.566;2023-09-30T12:32:46;7.30;;;2.83;;
38609;SDS011;24367;51.640;9.566;2023-09-30T12:35:13;8.95;;;2.67;;
38609;SDS011;24367;51.640;9.566;2023-09-30T12:37:39;8.45;;;2.65;;
38609;SDS011;24367;51.640;9.566;2023-09-30T12:40:10;8.00;;;2.88;;
38609;SDS011;24367;51.640;9.566;2023-09-30T12:42:39;13.82;;;3.20;;
38609;SDS011;24367;51.640;9.566;2023-09-30T12:45:06;8.25;;;2.70;;
38609;SDS011;24367;51.640;9.566;2023-09-30T12:47:33;8.45;;;2.80;;
38609;SDS011;24367;51.640;9.566;2023-09-30T12:49:59;8.07;;;2.60;;
38609;SDS011;24367;51.640;9.566;2023-09-30T12:52:25;9.20;;;3.20;;
38609;SDS011;24367;51.640;9.566;2023-09-30T12:54:52;7.45;;;2.90;;
38609;SDS011;24367;51.640;9.566;2023-09-30T12:57:21;7.55;;;2.72;;
38609;SDS011;24367;51.640;9.566;2023-09-30T12:59:47;7.07;;;2.75;;
38609;SDS011;24367;51.640;9.566;2023-09-30T13:02:14;6.72;;;2.38;;
38609;SDS011;24367;51.640;9.566;2023-09-30T13:04:41;8.85;;;2.90;;
38609;SDS011;24367;51.640;9.566;2023-09-30T13:07:09;7.07;;;3.17;;
38609;SDS011;24367;51.640;9.566;2023-09-30T13:09:36;7.20;;;2.90;;
38609;SDS011;24367;51.640;9.566;2023-09-30T13:12:04;6.93;;;3.00;;
38609;SDS011;24367;51.640;9.566;2023-09-30T13:14:32;7.25;;;2.60;;
38609;SDS011;24367;51.640;9.566;2023-09-30T13:16:58;7.15;;;2.50;;
38609;SDS011;24367;51.640;9.566;2023-09-30T13:19:26;9.27;;;3.10;;
38609;SDS011;24367;51.640;9.566;2023-09-30T13:21:53;5.43;;;2.47;;
38609;SDS011;24367;51.640;9.566;2023-09-30T13:24:20;7.45;;;3.30;;
38609;SDS011;24367;51.640;9.566;2023-09-30T13:26:46;7.32;;;3.42;;
38609;SDS011;24367;51.640;9.566;2023-09-30T13:29:13;5.97;;;2.50;;
38609;SDS011;24367;51.640;9.566;2023-09-30T13:31:42;6.55;;;3.00;;
38609;SDS011;24367;51.640;9.566;2023-09-30T13:34:10;5.80;;;2.40;;
38609;SDS011;24367;51.640;9.566;2023-09-30T13:36:37;8.00;;;3.05;;
38609;SDS011;24367;51.640;9.566;2023-09-30T13:39:03;6.88;;;2.47;;
38609;SDS011;24367;51.640;9.566;2023-09-30T13:41:33;5.40;;;2.85;;
38609;SDS011;24367;51.640;9.566;2023-09-30T13:44:00;7.47;;;3.08;;
38609;SDS011;24367;51.640;9.566;2023-09-30T13:46:26;8.15;;;2.90;;
38609;SDS011;24367;51.640;9.566;2023-09-30T13:48:55;8.63;;;3.25;;
38609;SDS011;24367;51.640;9.566;2023-09-30T13:51:21;8.52;;;3.53;;
38609;SDS011;24367;51.640;9.566;2023-09-30T13:53:48;7.47;;;3.15;;
38609;SDS011;24367;51.640;9.566;2023-09-30T13:56:15;9.18;;;3.47;;
38609;SDS011;24367;51.640;9.566;2023-09-30T13:58:42;8.32;;;3.35;;
38609;SDS011;24367;51.640;9.566;2023-09-30T14:01:09;13.70;;;3.50;;
38609;SDS011;24367;51.640;9.566;2023-09-30T14:03:36;16.70;;;3.80;;
38609;SDS011;24367;51.640;9.566;2023-09-30T14:06:10;8.77;;;3.85;;
38609;SDS011;24367;51.640;9.566;2023-09-30T14:08:38;9.50;;;3.03;;
38609;SDS011;24367;51.640;9.566;2023-09-30T14:11:04;8.30;;;2.72;;
38609;SDS011;24367;51.640;9.566;2023-09-30T14:13:30;11.45;;;3.20;;
38609;SDS011;24367;51.640;9.566;2023-09-30T14:15:57;9.25;;;3.03;;
38609;SDS011;24367;51.640;9.566;2023-09-30T14:18:23;9.50;;;3.50;;
38609;SDS011;24367;51.640;9.566;2023-09-30T14:20:50;8.90;;;3.22;;
38609;SDS011;24367;51.640;9.566;2023-09-30T14:23:18;6.25;;;2.30;;
38609;SDS011;24367;51.640;9.566;2023-09-30T14:25:44;8.15;;;2.95;;
38609;SDS011;24367;51.640;9.566;2023-09-30T14:28:11;7.32;;;2.60;;
38609;SDS011;24367;51.640;9.566;2023-09-30T14:30:37;6.85;;;2.17;;
38609;SDS011;24367;51.640;9.566;2023-09-30T14:33:04;6.72;;;2.60;;
38609;SDS011;24367;51.640;9.566;2023-09-30T14:35:32;6.22;;;2.80;;
38609;SDS011;24367;51.640;9.566;2023-09-30T14:37:59;7.47;;;2.47;;
38609;SDS011;24367;51.640;9.566;2023-09-30T14:40:27;11.88;;;2.78;;
38609;SDS011;24367;51.640;9.566;2023-09-30T14:42:53;8.93;;;3.03;;
38609;SDS011;24367;51.640;9.566;2023-09-30T14:45:20;8.02;;;2.97;;
38609;SDS011;24367;51.640;9.566;2023-09-30T14:47:47;5.43;;;2.30;;
38609;SDS011;24367;51.640;9.566;2023-09-30T14:50:13;6.65;;;2.60;;
38609;SDS011;24367;51.640;9.566;2023-09-30T14:52:41;6.22;;;2.33;;
38609;SDS011;24367;51.640;9.566;2023-09-30T14:55:07;5.43;;;2.72;;
38609;SDS011;24367;51.640;9.566;2023-09-30T14:57:35;7.10;;;2.78;;
38609;SDS011;24367;51.640;9.566;2023-09-30T15:00:03;5.70;;;2.80;;